Time,TemperatureF,DewpointF,PressureIn,WindDirection,WindDirectionDegrees,WindSpeedMPH,WindSpeedGustMPH,Humidity,HourlyPrecipIn,Conditions,Clouds,dailyrainin,SolarRadiationWatts/m^2,SoftwareType,DateUTC
2013-03-06 00:01:00,55.0,35.8,30.06,ESE,109,0.0,1.0,48,0.00,,,0.00,0.0,meteohub,2013-03-06 07:01:00,
2013-03-06 00:06:00,55.0,34.7,30.06,ESE,109,0.0,1.0,46,0.00,,,0.00,0.0,meteohub,2013-03-06 07:06:00,
2013-03-06 00:11:00,55.0,35.8,30.06,ESE,109,1.0,1.0,48,0.00,,,0.00,0.0,meteohub,2013-03-06 07:11:00,
2013-03-06 00:16:00,55.0,34.7,30.06,ESE,109,0.0,1.0,46,0.00,,,0.00,0.0,meteohub,2013-03-06 07:16:00,
2013-03-06 00:21:00,55.0,34.2,30.06,ESE,109,0.0,1.0,45,0.00,,,0.00,0.0,meteohub,2013-03-06 07:21:00,
2013-03-06 00:26:00,55.0,34.7,30.06,ESE,109,0.0,1.0,46,0.00,,,0.00,0.0,meteohub,2013-03-06 07:26:00,
2013-03-06 00:31:00,55.2,35.4,30.06,ESE,109,0.0,1.0,47,0.00,,,0.00,0.0,meteohub,2013-03-06 07:31:00,
2013-03-06 00:36:00,55.2,35.4,30.06,ESE,109,0.0,1.0,47,0.00,,,0.00,0.0,meteohub,2013-03-06 07:36:00,
2013-03-06 00:41:00,55.4,36.0,30.06,ESE,109,0.0,1.0,48,0.00,,,0.00,0.0,meteohub,2013-03-06 07:41:00,
2013-03-06 00:46:00,55.4,35.4,30.06,ESE,109,1.0,1.0,47,0.00,,,0.00,0.0,meteohub,2013-03-06 07:46:00,
2013-03-06 00:51:00,55.4,35.4,30.06,ESE,109,0.0,1.0,47,0.00,,,0.00,0.0,meteohub,2013-03-06 07:51:00,
2013-03-06 00:56:00,55.4,37.0,30.06,ESE,109,0.0,1.0,50,0.00,,,0.00,0.0,meteohub,2013-03-06 07:56:00,
2013-03-06 01:01:00,55.2,36.9,30.06,ESE,109,0.0,1.0,50,0.00,,,0.00,0.0,meteohub,2013-03-06 08:01:00,
2013-03-06 01:06:00,55.0,37.2,30.05,ESE,109,0.0,1.0,51,0.00,,,0.00,0.0,meteohub,2013-03-06 08:06:00,
2013-03-06 01:11:00,55.0,36.7,30.05,ESE,109,0.0,1.0,50,0.00,,,0.00,0.0,meteohub,2013-03-06 08:11:00,
2013-03-06 01:16:00,54.9,36.5,30.05,ESE,109,1.0,1.0,50,0.00,,,0.00,0.0,meteohub,2013-03-06 08:16:00,
2013-03-06 01:21:00,54.9,38.5,30.05,ESE,109,0.0,1.0,54,0.00,,,0.00,0.0,meteohub,2013-03-06 08:21:00,
2013-03-06 01:26:00,54.7,37.4,30.05,ESE,109,0.0,1.0,52,0.00,,,0.00,0.0,meteohub,2013-03-06 08:26:00,
2013-03-06 01:31:00,54.7,36.0,30.05,ESE,109,1.0,2.0,49,0.00,,,0.00,0.0,meteohub,2013-03-06 08:31:00,
2013-03-06 01:36:00,55.0,34.7,30.05,ESE,103,0.0,2.0,46,0.00,,,0.00,0.0,meteohub,2013-03-06 08:36:00,
2013-03-06 01:41:00,55.4,34.3,30.05,ESE,103,1.0,2.0,45,0.00,,,0.00,0.0,meteohub,2013-03-06 08:41:00,
2013-03-06 01:46:00,55.8,35.8,30.04,ESE,103,1.0,2.0,47,0.00,,,0.00,0.0,meteohub,2013-03-06 08:46:00,
2013-03-06 01:51:00,55.9,36.0,30.04,ESE,103,0.0,2.0,47,0.00,,,0.00,0.0,meteohub,2013-03-06 08:51:00,
2013-03-06 01:56:00,55.9,35.4,30.04,ESE,103,0.0,2.0,46,0.00,,,0.00,0.0,meteohub,2013-03-06 08:56:00,
2013-03-06 02:01:00,55.9,35.4,30.04,ESE,103,1.0,2.0,46,0.00,,,0.00,0.0,meteohub,2013-03-06 09:01:00,
2013-03-06 02:06:00,55.9,36.0,30.04,ESE,103,0.0,2.0,47,0.00,,,0.00,0.0,meteohub,2013-03-06 09:06:00,
2013-03-06 02:11:00,55.8,35.2,30.05,ESE,103,0.0,2.0,46,0.00,,,0.00,0.0,meteohub,2013-03-06 09:11:00,
2013-03-06 02:16:00,55.8,34.7,30.04,ESE,103,0.0,2.0,45,0.00,,,0.00,0.0,meteohub,2013-03-06 09:16:00,
2013-03-06 02:21:00,55.6,35.6,30.04,ESE,105,1.0,2.0,47,0.00,,,0.00,0.0,meteohub,2013-03-06 09:21:00,
2013-03-06 02:26:00,55.6,36.1,30.04,ESE,105,0.0,2.0,48,0.00,,,0.00,0.0,meteohub,2013-03-06 09:26:00,
2013-03-06 02:31:00,55.2,36.0,30.04,ESE,110,0.0,3.0,48,0.00,,,0.00,0.0,meteohub,2013-03-06 09:31:00,
2013-03-06 02:36:00,55.0,35.8,30.04,ESE,110,0.0,3.0,48,0.00,,,0.00,0.0,meteohub,2013-03-06 09:36:00,
2013-03-06 02:41:00,54.9,36.1,30.05,ESE,110,1.0,3.0,49,0.00,,,0.00,0.0,meteohub,2013-03-06 09:41:00,
2013-03-06 02:46:00,54.7,36.9,30.05,ESE,110,0.0,2.0,51,0.00,,,0.00,0.0,meteohub,2013-03-06 09:46:00,
2013-03-06 02:51:00,54.3,36.1,30.05,ESE,110,1.0,2.0,50,0.00,,,0.00,0.0,meteohub,2013-03-06 09:51:00,
2013-03-06 02:57:00,54.1,36.0,30.04,ESE,110,1.0,2.0,50,0.00,,,0.00,0.0,meteohub,2013-03-06 09:57:00,
2013-03-06 03:02:00,54.1,36.3,30.04,ESE,110,0.0,2.0,51,0.00,,,0.00,0.0,meteohub,2013-03-06 10:02:00,
2013-03-06 03:07:00,54.0,36.3,30.04,ESE,110,0.0,2.0,51,0.00,,,0.00,0.0,meteohub,2013-03-06 10:07:00,
2013-03-06 03:12:00,53.8,36.1,30.04,ESE,110,0.0,1.0,51,0.00,,,0.00,0.0,meteohub,2013-03-06 10:12:00,
2013-03-06 03:17:00,53.8,36.1,30.04,ESE,110,0.0,1.0,51,0.00,,,0.00,0.0,meteohub,2013-03-06 10:17:00,
2013-03-06 03:22:00,53.4,35.2,30.04,ESE,110,1.0,1.0,50,0.00,,,0.00,0.0,meteohub,2013-03-06 10:22:00,
2013-03-06 03:27:00,53.4,36.3,30.04,ESE,110,0.0,1.0,52,0.00,,,0.00,0.0,meteohub,2013-03-06 10:27:00,
2013-03-06 03:32:00,53.2,37.0,30.04,ESE,110,0.0,1.0,54,0.00,,,0.00,0.0,meteohub,2013-03-06 10:32:00,
2013-03-06 03:37:00,53.1,36.9,30.04,ESE,110,0.0,2.0,54,0.00,,,0.00,0.0,meteohub,2013-03-06 10:37:00,
2013-03-06 03:42:00,53.1,36.9,30.04,ESE,110,2.0,2.0,54,0.00,,,0.00,0.0,meteohub,2013-03-06 10:42:00,
2013-03-06 03:47:00,52.9,36.1,30.04,ESE,109,0.0,2.0,53,0.00,,,0.00,0.0,meteohub,2013-03-06 10:47:00,
2013-03-06 03:52:00,52.7,35.6,30.04,ESE,109,1.0,2.0,52,0.00,,,0.00,0.0,meteohub,2013-03-06 10:52:00,
2013-03-06 03:57:00,52.9,34.7,30.04,ESE,109,0.0,2.0,50,0.00,,,0.00,0.0,meteohub,2013-03-06 10:57:00,
2013-03-06 04:02:00,52.9,35.2,30.05,ESE,109,0.0,2.0,51,0.00,,,0.00,0.0,meteohub,2013-03-06 11:02:00,
2013-03-06 04:07:00,52.9,35.8,30.05,ESE,109,1.0,1.0,52,0.00,,,0.00,0.0,meteohub,2013-03-06 11:07:00,
2013-03-06 04:12:00,52.7,36.5,30.05,ESE,109,0.0,2.0,54,0.00,,,0.00,0.0,meteohub,2013-03-06 11:12:00,
2013-03-06 04:17:00,52.5,36.0,30.05,ESE,109,0.0,2.0,53,0.00,,,0.00,0.0,meteohub,2013-03-06 11:17:00,
2013-03-06 04:22:00,52.5,36.9,30.05,ESE,109,0.0,2.0,55,0.00,,,0.00,0.0,meteohub,2013-03-06 11:22:00,
2013-03-06 04:27:00,52.3,35.2,30.06,ESE,109,0.0,1.0,52,0.00,,,0.00,0.0,meteohub,2013-03-06 11:27:00,
2013-03-06 04:32:00,52.3,36.1,30.05,ESE,109,1.0,2.0,54,0.00,,,0.00,0.0,meteohub,2013-03-06 11:32:00,
2013-03-06 04:37:00,52.2,35.1,30.05,ESE,109,1.0,2.0,52,0.00,,,0.00,0.0,meteohub,2013-03-06 11:37:00,
2013-03-06 04:42:00,52.0,36.3,30.05,ESE,109,0.0,2.0,55,0.00,,,0.00,0.0,meteohub,2013-03-06 11:42:00,
2013-03-06 04:47:00,51.8,35.6,30.05,ESE,109,0.0,2.0,54,0.00,,,0.00,0.0,meteohub,2013-03-06 11:47:00,
2013-03-06 04:52:00,51.6,36.0,30.05,ESE,109,1.0,2.0,55,0.00,,,0.00,0.0,meteohub,2013-03-06 11:52:00,
2013-03-06 04:57:00,51.6,35.6,30.04,ESE,109,1.0,2.0,54,0.00,,,0.00,0.0,meteohub,2013-03-06 11:57:00,
2013-03-06 05:02:00,51.6,35.1,30.04,ESE,109,1.0,2.0,53,0.00,,,0.00,0.0,meteohub,2013-03-06 12:02:00,
2013-03-06 05:07:00,52.0,34.9,30.04,ESE,109,0.0,2.0,52,0.00,,,0.00,0.0,meteohub,2013-03-06 12:07:00,
2013-03-06 05:12:00,52.2,35.1,30.04,ESE,109,0.0,2.0,52,0.00,,,0.00,0.0,meteohub,2013-03-06 12:12:00,
2013-03-06 05:17:00,52.2,34.2,30.04,ESE,109,0.0,2.0,50,0.00,,,0.00,0.0,meteohub,2013-03-06 12:17:00,
2013-03-06 05:22:00,52.3,35.8,30.04,ESE,109,1.0,1.0,53,0.00,,,0.00,0.0,meteohub,2013-03-06 12:22:00,
2013-03-06 05:27:00,52.5,36.3,30.04,ESE,109,1.0,1.0,54,0.00,,,0.00,0.0,meteohub,2013-03-06 12:27:00,
2013-03-06 05:32:00,52.3,36.1,30.04,ESE,109,0.0,1.0,54,0.00,,,0.00,0.0,meteohub,2013-03-06 12:32:00,
2013-03-06 05:38:00,52.2,36.5,30.04,ESE,109,0.0,1.0,55,0.00,,,0.00,0.0,meteohub,2013-03-06 12:38:00,
2013-03-06 05:43:00,52.2,36.9,30.05,ESE,109,0.0,1.0,56,0.00,,,0.00,0.0,meteohub,2013-03-06 12:43:00,
2013-03-06 05:48:00,51.8,36.7,30.05,ESE,109,0.0,1.0,56,0.00,,,0.00,0.0,meteohub,2013-03-06 12:48:00,
2013-03-06 05:53:00,51.6,37.4,30.05,ESE,109,1.0,1.0,58,0.00,,,0.00,0.0,meteohub,2013-03-06 12:53:00,
2013-03-06 05:58:00,51.4,37.2,30.05,ESE,109,0.0,1.0,58,0.00,,,0.00,0.0,meteohub,2013-03-06 12:58:00,
2013-03-06 06:03:00,51.1,36.9,30.05,ESE,109,1.0,1.0,58,0.00,,,0.00,0.0,meteohub,2013-03-06 13:03:00,
2013-03-06 06:08:00,50.7,36.5,30.06,ESE,109,0.0,2.0,58,0.00,,,0.00,0.0,meteohub,2013-03-06 13:08:00,
2013-03-06 06:13:00,50.5,36.3,30.06,SSE,160,0.0,2.0,58,0.00,,,0.00,0.0,meteohub,2013-03-06 13:13:00,
2013-03-06 06:18:00,50.4,35.8,30.06,SSE,159,0.0,3.0,57,0.00,,,0.00,0.0,meteohub,2013-03-06 13:18:00,
2013-03-06 06:23:00,50.4,36.1,30.06,SSE,160,1.0,3.0,58,0.00,,,0.00,0.0,meteohub,2013-03-06 13:23:00,
2013-03-06 06:28:00,50.0,35.8,30.05,SSE,160,0.0,2.0,58,0.00,,,0.00,0.0,meteohub,2013-03-06 13:28:00,
2013-03-06 06:33:00,49.8,35.6,30.05,SSE,160,0.0,2.0,58,0.00,,,0.00,0.0,meteohub,2013-03-06 13:33:00,
2013-03-06 06:38:00,49.6,35.1,30.06,SSE,160,0.0,2.0,57,0.00,,,0.00,0.0,meteohub,2013-03-06 13:38:00,
2013-03-06 06:43:00,49.6,35.4,30.06,SSE,160,1.0,1.0,58,0.00,,,0.00,0.0,meteohub,2013-03-06 13:43:00,
2013-03-06 06:48:00,49.3,36.0,30.06,SSE,160,0.0,1.0,60,0.00,,,0.00,5.0,meteohub,2013-03-06 13:48:00,
2013-03-06 06:53:00,48.7,36.3,30.06,SSE,160,0.0,1.0,62,0.00,,,0.00,5.0,meteohub,2013-03-06 13:53:00,
2013-03-06 06:58:00,48.4,36.0,30.06,SSE,160,0.0,1.0,62,0.00,,,0.00,9.0,meteohub,2013-03-06 13:58:00,
2013-03-06 07:03:00,48.0,34.9,30.06,SSE,160,0.0,1.0,60,0.00,,,0.00,12.0,meteohub,2013-03-06 14:03:00,
2013-03-06 07:08:00,48.2,34.9,30.06,SSE,160,0.0,1.0,60,0.00,,,0.00,21.0,meteohub,2013-03-06 14:08:00,
2013-03-06 07:13:00,48.6,35.2,30.06,SSE,160,0.0,1.0,60,0.00,,,0.00,40.0,meteohub,2013-03-06 14:13:00,
2013-03-06 07:18:00,48.9,36.1,30.06,SSE,160,0.0,1.0,61,0.00,,,0.00,63.0,meteohub,2013-03-06 14:18:00,
2013-03-06 07:23:00,50.0,36.3,30.06,SSE,160,1.0,1.0,59,0.00,,,0.00,86.0,meteohub,2013-03-06 14:23:00,
2013-03-06 07:28:00,51.4,37.2,30.06,SSE,160,0.0,2.0,58,0.00,,,0.00,102.0,meteohub,2013-03-06 14:28:00,
2013-03-06 07:33:00,52.5,36.9,30.06,SSE,160,0.0,2.0,55,0.00,,,0.00,53.0,meteohub,2013-03-06 14:33:00,
2013-03-06 07:38:00,53.4,37.6,30.06,SSE,160,0.0,2.0,55,0.00,,,0.00,60.0,meteohub,2013-03-06 14:38:00,
2013-03-06 07:43:00,54.1,38.8,30.06,SSE,160,0.0,2.0,56,0.00,,,0.00,105.0,meteohub,2013-03-06 14:43:00,
2013-03-06 07:48:00,54.7,39.7,30.06,SSE,160,0.0,2.0,57,0.00,,,0.00,81.0,meteohub,2013-03-06 14:48:00,
2013-03-06 07:53:00,55.2,40.3,30.06,SSE,160,0.0,2.0,57,0.00,,,0.00,221.0,meteohub,2013-03-06 14:53:00,
2013-03-06 07:58:00,56.3,36.9,30.07,SSE,160,0.0,1.0,48,0.00,,,0.00,330.0,meteohub,2013-03-06 14:58:00,
2013-03-06 08:03:00,58.3,36.0,30.07,SSE,160,1.0,1.0,43,0.00,,,0.00,355.0,meteohub,2013-03-06 15:03:00,
2013-03-06 08:08:00,60.3,35.2,30.07,SSE,160,0.0,2.0,39,0.00,,,0.00,332.0,meteohub,2013-03-06 15:08:00,
2013-03-06 08:14:00,61.9,34.7,30.07,SSE,160,0.0,2.0,36,0.00,,,0.00,193.0,meteohub,2013-03-06 15:14:00,
2013-03-06 08:19:00,62.8,34.0,30.07,SSE,160,0.0,2.0,34,0.00,,,0.00,213.0,meteohub,2013-03-06 15:19:00,
2013-03-06 08:24:00,63.7,34.0,30.08,SSE,160,1.0,2.0,33,0.00,,,0.00,202.0,meteohub,2013-03-06 15:24:00,
2013-03-06 08:29:00,64.0,34.3,30.08,SSE,160,1.0,1.0,33,0.00,,,0.00,236.0,meteohub,2013-03-06 15:29:00,
2013-03-06 08:34:00,64.6,33.3,30.08,SSE,160,1.0,1.0,31,0.00,,,0.00,411.0,meteohub,2013-03-06 15:34:00,
2013-03-06 08:39:00,64.8,34.2,30.08,SSE,160,1.0,2.0,32,0.00,,,0.00,287.0,meteohub,2013-03-06 15:39:00,
2013-03-06 08:44:00,65.3,33.8,30.08,SSE,160,2.0,2.0,31,0.00,,,0.00,417.0,meteohub,2013-03-06 15:44:00,
2013-03-06 08:49:00,66.0,33.6,30.08,South,169,2.0,2.0,30,0.00,,,0.00,438.0,meteohub,2013-03-06 15:49:00,
2013-03-06 08:54:00,66.6,34.2,30.08,South,171,1.0,2.0,30,0.00,,,0.00,415.0,meteohub,2013-03-06 15:54:00,
2013-03-06 08:59:00,67.1,33.8,30.08,WSW,254,1.0,2.0,29,0.00,,,0.00,455.0,meteohub,2013-03-06 15:59:00,
2013-03-06 09:04:00,67.6,32.5,30.08,WNW,302,3.0,3.0,27,0.00,,,0.00,475.0,meteohub,2013-03-06 16:04:00,
2013-03-06 09:09:00,68.4,33.1,30.08,West,263,3.0,3.0,27,0.00,,,0.00,485.0,meteohub,2013-03-06 16:09:00,
2013-03-06 09:14:00,68.7,32.4,30.08,West,265,2.0,3.0,26,0.00,,,0.00,527.0,meteohub,2013-03-06 16:14:00,
2013-03-06 09:19:00,69.3,32.9,30.08,SSW,212,1.0,4.0,26,0.00,,,0.00,438.0,meteohub,2013-03-06 16:19:00,
2013-03-06 09:24:00,69.6,32.2,30.08,SSE,167,3.0,4.0,25,0.00,,,0.00,613.0,meteohub,2013-03-06 16:24:00,
2013-03-06 09:29:00,69.6,32.2,30.09,South,187,1.0,4.0,25,0.00,,,0.00,239.0,meteohub,2013-03-06 16:29:00,
2013-03-06 09:34:00,69.6,32.2,30.08,South,170,1.0,5.0,25,0.00,,,0.00,482.0,meteohub,2013-03-06 16:34:00,
2013-03-06 09:39:00,69.6,32.2,30.07,SSW,208,2.0,5.0,25,0.00,,,0.00,591.0,meteohub,2013-03-06 16:39:00,
2013-03-06 09:44:00,70.0,31.5,30.07,South,189,1.0,5.0,24,0.00,,,0.00,332.0,meteohub,2013-03-06 16:44:00,
2013-03-06 09:49:00,70.2,32.7,30.07,South,173,2.0,5.0,25,0.00,,,0.00,316.0,meteohub,2013-03-06 16:49:00,
2013-03-06 09:54:00,70.0,29.3,30.07,South,182,1.0,5.0,22,0.00,,,0.00,295.0,meteohub,2013-03-06 16:54:00,
2013-03-06 09:59:00,69.8,29.3,30.07,SSW,196,0.0,5.0,22,0.00,,,0.00,279.0,meteohub,2013-03-06 16:59:00,
2013-03-06 10:04:00,69.8,27.0,30.07,SSW,196,0.0,3.0,20,0.00,,,0.00,269.0,meteohub,2013-03-06 17:04:00,
2013-03-06 10:09:00,70.0,27.1,30.07,SSW,198,2.0,3.0,20,0.00,,,0.00,246.0,meteohub,2013-03-06 17:09:00,
2013-03-06 10:14:00,70.0,25.9,30.07,SW,234,0.0,3.0,19,0.00,,,0.00,236.0,meteohub,2013-03-06 17:14:00,
2013-03-06 10:19:00,70.2,26.1,30.07,SW,234,1.0,4.0,19,0.00,,,0.00,248.0,meteohub,2013-03-06 17:19:00,
2013-03-06 10:24:00,70.9,25.3,30.08,WSW,250,3.0,4.0,18,0.00,,,0.00,708.0,meteohub,2013-03-06 17:24:00,
2013-03-06 10:29:00,71.4,25.7,30.08,SW,221,0.0,4.0,18,0.00,,,0.00,715.0,meteohub,2013-03-06 17:29:00,
2013-03-06 10:34:00,72.3,20.5,30.08,NW,310,1.0,5.0,14,0.00,,,0.00,733.0,meteohub,2013-03-06 17:34:00,
2013-03-06 10:39:00,72.9,22.5,30.07,SSW,192,4.0,5.0,15,0.00,,,0.00,744.0,meteohub,2013-03-06 17:39:00,
2013-03-06 10:44:00,73.2,22.8,30.07,WNW,296,1.0,5.0,15,0.00,,,0.00,754.0,meteohub,2013-03-06 17:44:00,
2013-03-06 10:49:00,73.9,21.7,30.07,NW,310,2.0,6.0,14,0.00,,,0.00,773.0,meteohub,2013-03-06 17:49:00,
2013-03-06 10:54:00,73.9,21.7,30.07,North,355,2.0,8.0,14,0.00,,,0.00,782.0,meteohub,2013-03-06 17:54:00,
2013-03-06 10:59:00,73.9,23.4,30.07,WNW,302,4.0,8.0,15,0.00,,,0.00,796.0,meteohub,2013-03-06 17:59:00,
2013-03-06 11:04:00,73.8,23.2,30.07,WNW,286,3.0,8.0,15,0.00,,,0.00,793.0,meteohub,2013-03-06 18:04:00,
2013-03-06 11:09:00,73.8,23.2,30.07,West,272,3.0,8.0,15,0.00,,,0.00,796.0,meteohub,2013-03-06 18:09:00,
2013-03-06 11:14:00,73.9,25.0,30.06,NNW,336,3.0,8.0,16,0.00,,,0.00,802.0,meteohub,2013-03-06 18:14:00,
2013-03-06 11:19:00,73.9,25.0,30.06,South,186,2.0,8.0,16,0.00,,,0.00,810.0,meteohub,2013-03-06 18:19:00,
2013-03-06 11:24:00,74.1,25.0,30.06,WSW,256,4.0,8.0,16,0.00,,,0.00,817.0,meteohub,2013-03-06 18:24:00,
2013-03-06 11:29:00,74.3,23.7,30.06,WSW,252,1.0,9.0,15,0.00,,,0.00,823.0,meteohub,2013-03-06 18:29:00,
2013-03-06 11:34:00,74.7,27.0,30.06,NW,306,4.0,9.0,17,0.00,,,0.00,830.0,meteohub,2013-03-06 18:34:00,
2013-03-06 11:39:00,74.8,25.7,30.06,SSW,207,4.0,7.0,16,0.00,,,0.00,837.0,meteohub,2013-03-06 18:39:00,
2013-03-06 11:44:00,75.2,27.3,30.06,WSW,250,5.0,7.0,17,0.00,,,0.00,840.0,meteohub,2013-03-06 18:44:00,
2013-03-06 11:49:00,75.4,27.5,30.05,WNW,282,2.0,8.0,17,0.00,,,0.00,847.0,meteohub,2013-03-06 18:49:00,
2013-03-06 11:54:00,75.2,28.8,30.05,WNW,292,2.0,8.0,18,0.00,,,0.00,853.0,meteohub,2013-03-06 18:54:00,
2013-03-06 11:59:00,75.2,27.3,30.05,WSW,254,3.0,8.0,17,0.00,,,0.00,856.0,meteohub,2013-03-06 18:59:00,
2013-03-06 12:04:00,75.7,26.4,30.05,NW,323,3.0,7.0,16,0.00,,,0.00,861.0,meteohub,2013-03-06 19:04:00,
2013-03-06 12:09:00,76.5,27.0,30.05,SSE,165,2.0,6.0,16,0.00,,,0.00,861.0,meteohub,2013-03-06 19:09:00,
2013-03-06 12:14:00,76.6,25.5,30.05,SSW,194,3.0,6.0,15,0.00,,,0.00,863.0,meteohub,2013-03-06 19:14:00,
2013-03-06 12:19:00,75.9,26.4,30.04,NNW,333,2.0,5.0,16,0.00,,,0.00,867.0,meteohub,2013-03-06 19:19:00,
2013-03-06 12:24:00,76.3,26.8,30.04,NW,319,5.0,7.0,16,0.00,,,0.00,868.0,meteohub,2013-03-06 19:24:00,
2013-03-06 12:29:00,76.3,26.8,30.04,NW,315,3.0,8.0,16,0.00,,,0.00,868.0,meteohub,2013-03-06 19:29:00,
2013-03-06 12:34:00,76.5,27.0,30.04,NNE,19,2.0,8.0,16,0.00,,,0.00,870.0,meteohub,2013-03-06 19:34:00,
2013-03-06 12:39:00,76.6,27.1,30.03,West,277,4.0,8.0,16,0.00,,,0.00,868.0,meteohub,2013-03-06 19:39:00,
2013-03-06 12:44:00,76.8,25.7,30.03,NNE,19,3.0,7.0,15,0.00,,,0.00,874.0,meteohub,2013-03-06 19:44:00,
2013-03-06 12:49:00,76.8,25.7,30.03,SW,216,3.0,10.0,15,0.00,,,0.00,872.0,meteohub,2013-03-06 19:49:00,
2013-03-06 12:54:00,77.5,26.2,30.03,SW,235,3.0,11.0,15,0.00,,,0.00,870.0,meteohub,2013-03-06 19:54:00,
2013-03-06 12:59:00,77.5,26.2,30.02,NW,306,4.0,11.0,15,0.00,,,0.00,868.0,meteohub,2013-03-06 19:59:00,
2013-03-06 13:04:00,77.5,26.2,30.02,East,88,2.0,8.0,15,0.00,,,0.00,863.0,meteohub,2013-03-06 20:04:00,
2013-03-06 13:10:00,77.9,28.0,30.02,WSW,246,2.0,8.0,16,0.00,,,0.00,863.0,meteohub,2013-03-06 20:10:00,
2013-03-06 13:15:00,78.1,26.6,30.01,West,281,2.0,6.0,15,0.00,,,0.00,860.0,meteohub,2013-03-06 20:15:00,
2013-03-06 13:20:00,78.1,25.0,30.01,WSW,250,4.0,7.0,14,0.00,,,0.00,858.0,meteohub,2013-03-06 20:20:00,
2013-03-06 13:25:00,78.1,26.6,30.00,NW,323,5.0,8.0,15,0.00,,,0.00,851.0,meteohub,2013-03-06 20:25:00,
2013-03-06 13:30:00,78.3,25.2,30.00,WSW,239,2.0,8.0,14,0.00,,,0.00,847.0,meteohub,2013-03-06 20:30:00,
2013-03-06 13:35:00,77.9,24.8,29.99,SW,225,4.0,8.0,14,0.00,,,0.00,842.0,meteohub,2013-03-06 20:35:00,
2013-03-06 13:40:00,78.1,26.6,29.99,SSE,157,2.0,7.0,15,0.00,,,0.00,837.0,meteohub,2013-03-06 20:40:00,
2013-03-06 13:45:00,78.6,25.5,29.99,North,11,2.0,7.0,14,0.00,,,0.00,831.0,meteohub,2013-03-06 20:45:00,
2013-03-06 13:50:00,79.2,27.5,29.98,WSW,246,3.0,7.0,15,0.00,,,0.00,826.0,meteohub,2013-03-06 20:50:00,
2013-03-06 13:55:00,79.2,25.9,29.98,SSE,168,1.0,6.0,14,0.00,,,0.00,817.0,meteohub,2013-03-06 20:55:00,
2013-03-06 14:00:00,79.5,26.1,29.98,WSW,258,3.0,9.0,14,0.00,,,0.00,812.0,meteohub,2013-03-06 21:00:00,
2013-03-06 14:05:00,79.5,27.9,29.98,North,355,3.0,11.0,15,0.00,,,0.00,803.0,meteohub,2013-03-06 21:05:00,
2013-03-06 14:10:00,79.3,26.1,29.97,NE,34,2.0,11.0,14,0.00,,,0.00,793.0,meteohub,2013-03-06 21:10:00,
2013-03-06 14:15:00,79.5,26.1,29.97,West,265,0.0,8.0,14,0.00,,,0.00,786.0,meteohub,2013-03-06 21:15:00,
2013-03-06 14:20:00,79.9,26.4,29.97,SE,140,2.0,6.0,14,0.00,,,0.00,773.0,meteohub,2013-03-06 21:20:00,
2013-03-06 14:25:00,80.1,26.6,29.96,WSW,256,7.0,7.0,14,0.00,,,0.00,766.0,meteohub,2013-03-06 21:25:00,
2013-03-06 14:30:00,80.4,25.2,29.96,West,273,3.0,9.0,13,0.00,,,0.00,758.0,meteohub,2013-03-06 21:30:00,
2013-03-06 14:35:00,80.2,26.8,29.96,West,265,1.0,9.0,14,0.00,,,0.00,747.0,meteohub,2013-03-06 21:35:00,
2013-03-06 14:40:00,80.2,26.8,29.96,NW,304,2.0,9.0,14,0.00,,,0.00,735.0,meteohub,2013-03-06 21:40:00,
2013-03-06 14:45:00,80.4,26.8,29.96,NNW,329,3.0,9.0,14,0.00,,,0.00,722.0,meteohub,2013-03-06 21:45:00,
2013-03-06 14:50:00,80.4,26.8,29.96,West,264,4.0,10.0,14,0.00,,,0.00,712.0,meteohub,2013-03-06 21:50:00,
2013-03-06 14:55:00,80.8,25.3,29.96,West,265,6.0,10.0,13,0.00,,,0.00,700.0,meteohub,2013-03-06 21:55:00,
2013-03-06 15:00:00,80.2,25.0,29.96,NNE,30,3.0,10.0,13,0.00,,,0.00,686.0,meteohub,2013-03-06 22:00:00,
2013-03-06 15:05:00,80.6,27.0,29.95,SW,222,5.0,8.0,14,0.00,,,0.00,677.0,meteohub,2013-03-06 22:05:00,
2013-03-06 15:10:00,80.4,26.8,29.95,SSW,196,5.0,7.0,14,0.00,,,0.00,661.0,meteohub,2013-03-06 22:10:00,
2013-03-06 15:15:00,80.4,26.8,29.95,SSW,212,3.0,7.0,14,0.00,,,0.00,647.0,meteohub,2013-03-06 22:15:00,
2013-03-06 15:20:00,81.0,27.3,29.95,WNW,294,5.0,6.0,14,0.00,,,0.00,635.0,meteohub,2013-03-06 22:20:00,
2013-03-06 15:25:00,80.6,27.0,29.95,NNW,337,3.0,9.0,14,0.00,,,0.00,619.0,meteohub,2013-03-06 22:25:00,
2013-03-06 15:30:00,80.6,27.0,29.95,WSW,257,6.0,9.0,14,0.00,,,0.00,605.0,meteohub,2013-03-06 22:30:00,
2013-03-06 15:35:00,80.2,26.8,29.95,NW,309,5.0,9.0,14,0.00,,,0.00,589.0,meteohub,2013-03-06 22:35:00,
2013-03-06 15:40:00,80.2,26.8,29.95,NW,319,6.0,11.0,14,0.00,,,0.00,577.0,meteohub,2013-03-06 22:40:00,
2013-03-06 15:45:00,80.1,26.6,29.95,West,267,4.0,11.0,14,0.00,,,0.00,559.0,meteohub,2013-03-06 22:45:00,
2013-03-06 15:50:00,80.6,27.0,29.94,SW,217,2.0,8.0,14,0.00,,,0.00,543.0,meteohub,2013-03-06 22:50:00,
2013-03-06 15:55:00,81.0,27.3,29.94,SSW,194,5.0,8.0,14,0.00,,,0.00,526.0,meteohub,2013-03-06 22:55:00,
2013-03-06 16:00:00,81.1,27.5,29.94,NW,311,3.0,8.0,14,0.00,,,0.00,508.0,meteohub,2013-03-06 23:00:00,
2013-03-06 16:05:00,81.1,27.5,29.94,West,263,4.0,8.0,14,0.00,,,0.00,494.0,meteohub,2013-03-06 23:05:00,
2013-03-06 16:10:00,81.0,27.3,29.94,WSW,249,5.0,14.0,14,0.00,,,0.00,487.0,meteohub,2013-03-06 23:10:00,
2013-03-06 16:15:00,80.8,27.1,29.94,WSW,253,3.0,14.0,14,0.00,,,0.00,461.0,meteohub,2013-03-06 23:15:00,
2013-03-06 16:20:00,80.8,27.1,29.94,West,265,7.0,14.0,14,0.00,,,0.00,441.0,meteohub,2013-03-06 23:20:00,
2013-03-06 16:25:00,80.4,28.6,29.94,WSW,255,3.0,9.0,15,0.00,,,0.00,424.0,meteohub,2013-03-06 23:25:00,
2013-03-06 16:30:00,79.9,28.0,29.94,NW,318,3.0,9.0,15,0.00,,,0.00,408.0,meteohub,2013-03-06 23:30:00,
2013-03-06 16:35:00,79.9,28.0,29.94,West,261,4.0,9.0,15,0.00,,,0.00,388.0,meteohub,2013-03-06 23:35:00,
2013-03-06 16:40:00,80.1,28.2,29.94,West,271,3.0,9.0,15,0.00,,,0.00,371.0,meteohub,2013-03-06 23:40:00,
2013-03-06 16:45:00,80.2,28.4,29.94,West,263,6.0,9.0,15,0.00,,,0.00,353.0,meteohub,2013-03-06 23:45:00,
2013-03-06 16:50:00,79.9,26.4,29.94,West,271,3.0,11.0,14,0.00,,,0.00,336.0,meteohub,2013-03-06 23:50:00,
2013-03-06 16:55:00,79.5,27.9,29.94,WNW,303,2.0,11.0,15,0.00,,,0.00,316.0,meteohub,2013-03-06 23:55:00,
2013-03-06 17:00:00,79.2,27.5,29.94,WSW,253,4.0,11.0,15,0.00,,,0.00,295.0,meteohub,2013-03-07 00:00:00,
2013-03-06 17:05:00,79.3,27.7,29.93,WNW,288,4.0,9.0,15,0.00,,,0.00,274.0,meteohub,2013-03-07 00:05:00,
2013-03-06 17:10:00,79.3,27.7,29.93,West,263,4.0,8.0,15,0.00,,,0.00,250.0,meteohub,2013-03-07 00:10:00,
2013-03-06 17:15:00,79.2,27.5,29.93,WNW,291,4.0,7.0,15,0.00,,,0.00,225.0,meteohub,2013-03-07 00:15:00,
2013-03-06 17:20:00,79.0,27.3,29.93,West,264,3.0,8.0,15,0.00,,,0.00,199.0,meteohub,2013-03-07 00:20:00,
2013-03-06 17:25:00,78.6,27.1,29.93,West,264,3.0,8.0,15,0.00,,,0.00,174.0,meteohub,2013-03-07 00:25:00,
2013-03-06 17:30:00,78.4,27.0,29.93,WNW,298,3.0,8.0,15,0.00,,,0.00,149.0,meteohub,2013-03-07 00:30:00,
2013-03-06 17:36:00,78.1,28.2,29.93,WNW,302,5.0,9.0,16,0.00,,,0.00,127.0,meteohub,2013-03-07 00:36:00,
2013-03-06 17:41:00,77.7,27.9,29.93,West,265,4.0,9.0,16,0.00,,,0.00,104.0,meteohub,2013-03-07 00:41:00,
2013-03-06 17:46:00,77.4,27.7,29.93,WNW,286,3.0,9.0,16,0.00,,,0.00,88.0,meteohub,2013-03-07 00:46:00,
2013-03-06 17:51:00,77.2,28.9,29.93,WNW,294,0.0,7.0,17,0.00,,,0.00,67.0,meteohub,2013-03-07 00:51:00,
2013-03-06 17:56:00,77.0,27.3,29.93,West,272,2.0,7.0,16,0.00,,,0.00,51.0,meteohub,2013-03-07 00:56:00,
2013-03-06 18:01:00,76.6,28.6,29.93,West,263,5.0,5.0,17,0.00,,,0.00,35.0,meteohub,2013-03-07 01:01:00,
2013-03-06 18:06:00,76.3,28.2,29.93,WSW,256,7.0,7.0,17,0.00,,,0.00,23.0,meteohub,2013-03-07 01:06:00,
2013-03-06 18:11:00,75.7,27.9,29.93,West,267,3.0,7.0,17,0.00,,,0.00,16.0,meteohub,2013-03-07 01:11:00,
2013-03-06 18:16:00,75.2,28.8,29.93,West,259,0.0,7.0,18,0.00,,,0.00,12.0,meteohub,2013-03-07 01:16:00,
2013-03-06 18:21:00,74.7,28.4,29.93,West,270,0.0,7.0,18,0.00,,,0.00,9.0,meteohub,2013-03-07 01:21:00,
2013-03-06 18:26:00,73.9,29.1,29.93,West,270,1.0,5.0,19,0.00,,,0.00,5.0,meteohub,2013-03-07 01:26:00,
2013-03-06 18:31:00,73.2,28.4,29.93,West,262,2.0,3.0,19,0.00,,,0.00,0.0,meteohub,2013-03-07 01:31:00,
2013-03-06 18:36:00,72.7,29.3,29.93,West,270,2.0,3.0,20,0.00,,,0.00,0.0,meteohub,2013-03-07 01:36:00,
2013-03-06 18:41:00,72.0,28.8,29.93,West,270,1.0,3.0,20,0.00,,,0.00,0.0,meteohub,2013-03-07 01:41:00,
2013-03-06 18:46:00,71.4,29.5,29.93,West,270,0.0,3.0,21,0.00,,,0.00,0.0,meteohub,2013-03-07 01:46:00,
2013-03-06 18:51:00,70.9,28.9,29.93,West,270,0.0,3.0,21,0.00,,,0.00,0.0,meteohub,2013-03-07 01:51:00,
2013-03-06 18:56:00,70.2,29.5,29.93,West,270,0.0,2.0,22,0.00,,,0.00,0.0,meteohub,2013-03-07 01:56:00,
2013-03-06 19:01:00,69.6,29.1,29.93,West,270,1.0,1.0,22,0.00,,,0.00,0.0,meteohub,2013-03-07 02:01:00,
2013-03-06 19:06:00,69.1,29.7,29.94,West,270,1.0,1.0,23,0.00,,,0.00,0.0,meteohub,2013-03-07 02:06:00,
2013-03-06 19:11:00,68.5,30.4,29.94,West,270,0.0,2.0,24,0.00,,,0.00,0.0,meteohub,2013-03-07 02:11:00,
2013-03-06 19:16:00,68.2,30.0,29.94,West,270,0.0,2.0,24,0.00,,,0.00,0.0,meteohub,2013-03-07 02:16:00,
2013-03-06 19:21:00,67.6,30.6,29.94,West,270,0.0,2.0,25,0.00,,,0.00,0.0,meteohub,2013-03-07 02:21:00,
2013-03-06 19:26:00,66.9,30.0,29.94,West,270,1.0,0.0,25,0.00,,,0.00,0.0,meteohub,2013-03-07 02:26:00,
2013-03-06 19:31:00,66.4,30.4,29.94,West,270,1.0,2.0,26,0.00,,,0.00,0.0,meteohub,2013-03-07 02:31:00,
2013-03-06 19:36:00,65.8,30.0,29.94,West,270,1.0,2.0,26,0.00,,,0.00,0.0,meteohub,2013-03-07 02:36:00,
2013-03-06 19:41:00,65.7,29.8,29.95,West,270,1.0,2.0,26,0.00,,,0.00,0.0,meteohub,2013-03-07 02:41:00,
2013-03-06 19:46:00,65.3,30.4,29.95,West,270,0.0,2.0,27,0.00,,,0.00,0.0,meteohub,2013-03-07 02:46:00,
2013-03-06 19:51:00,64.9,30.2,29.95,West,270,0.0,2.0,27,0.00,,,0.00,0.0,meteohub,2013-03-07 02:51:00,
2013-03-06 19:56:00,64.8,30.0,29.95,West,270,0.0,2.0,27,0.00,,,0.00,0.0,meteohub,2013-03-07 02:56:00,
2013-03-06 20:01:00,64.2,31.3,29.95,West,270,1.0,1.0,29,0.00,,,0.00,0.0,meteohub,2013-03-07 03:01:00,
2013-03-06 20:06:00,63.9,31.8,29.95,West,270,0.0,1.0,30,0.00,,,0.00,0.0,meteohub,2013-03-07 03:06:00,
2013-03-06 20:11:00,63.1,32.0,29.95,West,270,1.0,2.0,31,0.00,,,0.00,0.0,meteohub,2013-03-07 03:11:00,
2013-03-06 20:16:00,62.6,30.7,29.95,West,270,0.0,2.0,30,0.00,,,0.00,0.0,meteohub,2013-03-07 03:16:00,
2013-03-06 20:21:00,62.1,31.1,29.95,West,270,1.0,2.0,31,0.00,,,0.00,0.0,meteohub,2013-03-07 03:21:00,
2013-03-06 20:26:00,61.5,30.6,29.95,West,270,0.0,2.0,31,0.00,,,0.00,0.0,meteohub,2013-03-07 03:26:00,
2013-03-06 20:31:00,61.2,31.1,29.95,West,270,1.0,2.0,32,0.00,,,0.00,0.0,meteohub,2013-03-07 03:31:00,
2013-03-06 20:36:00,60.6,30.6,29.96,West,270,1.0,2.0,32,0.00,,,0.00,0.0,meteohub,2013-03-07 03:36:00,
2013-03-06 20:41:00,60.3,31.1,29.96,West,270,0.0,2.0,33,0.00,,,0.00,0.0,meteohub,2013-03-07 03:41:00,
2013-03-06 20:46:00,59.9,31.5,29.96,West,270,0.0,2.0,34,0.00,,,0.00,0.0,meteohub,2013-03-07 03:46:00,
2013-03-06 20:51:00,59.5,31.8,29.96,West,270,1.0,2.0,35,0.00,,,0.00,0.0,meteohub,2013-03-07 03:51:00,
2013-03-06 20:56:00,59.4,30.9,29.96,West,270,0.0,1.0,34,0.00,,,0.00,0.0,meteohub,2013-03-07 03:56:00,
2013-03-06 21:01:00,58.8,32.5,29.96,West,270,0.0,1.0,37,0.00,,,0.00,0.0,meteohub,2013-03-07 04:01:00,
2013-03-06 21:06:00,58.5,31.6,29.97,West,270,0.0,1.0,36,0.00,,,0.00,0.0,meteohub,2013-03-07 04:06:00,
2013-03-06 21:11:00,58.3,30.7,29.97,West,270,0.0,1.0,35,0.00,,,0.00,0.0,meteohub,2013-03-07 04:11:00,
2013-03-06 21:17:00,57.9,32.5,29.97,West,270,1.0,1.0,38,0.00,,,0.00,0.0,meteohub,2013-03-07 04:17:00,
2013-03-06 21:22:00,57.6,32.7,29.97,West,270,0.0,2.0,39,0.00,,,0.00,0.0,meteohub,2013-03-07 04:22:00,
2013-03-06 21:27:00,57.0,32.9,29.97,West,270,1.0,2.0,40,0.00,,,0.00,0.0,meteohub,2013-03-07 04:27:00,
2013-03-06 21:32:00,56.5,32.4,29.97,West,270,1.0,2.0,40,0.00,,,0.00,0.0,meteohub,2013-03-07 04:32:00,
2013-03-06 21:37:00,55.9,31.3,29.97,West,270,1.0,1.0,39,0.00,,,0.00,0.0,meteohub,2013-03-07 04:37:00,
2013-03-06 21:42:00,55.8,31.1,29.97,West,270,1.0,2.0,39,0.00,,,0.00,0.0,meteohub,2013-03-07 04:42:00,
2013-03-06 21:47:00,55.8,31.8,29.97,West,270,0.0,2.0,40,0.00,,,0.00,0.0,meteohub,2013-03-07 04:47:00,
2013-03-06 21:52:00,55.8,31.8,29.98,West,270,0.0,2.0,40,0.00,,,0.00,0.0,meteohub,2013-03-07 04:52:00,
2013-03-06 21:57:00,55.8,32.4,29.97,West,270,0.0,2.0,41,0.00,,,0.00,0.0,meteohub,2013-03-07 04:57:00,
2013-03-06 22:00:00,55.8,32.4,29.97,West,270,0.0,2.0,41,0.00,,,0.00,0.0,meteohub,2013-03-07 05:00:00,
2013-03-06 22:05:00,55.2,31.3,29.97,West,270,1.0,1.0,40,0.00,,,0.00,0.0,meteohub,2013-03-07 05:05:00,
2013-03-06 22:10:00,55.2,32.5,29.97,West,270,1.0,1.0,42,0.00,,,0.00,0.0,meteohub,2013-03-07 05:10:00,
2013-03-06 22:15:00,55.0,33.4,29.97,West,270,0.0,1.0,44,0.00,,,0.00,0.0,meteohub,2013-03-07 05:15:00,
2013-03-06 22:20:00,54.9,33.4,29.97,West,270,0.0,1.0,44,0.00,,,0.00,0.0,meteohub,2013-03-07 05:20:00,
2013-03-06 22:25:00,54.7,33.3,29.98,West,270,1.0,1.0,44,0.00,,,0.00,0.0,meteohub,2013-03-07 05:25:00,
2013-03-06 22:30:00,54.5,32.5,29.98,West,270,0.0,1.0,43,0.00,,,0.00,0.0,meteohub,2013-03-07 05:30:00,
2013-03-06 22:35:00,54.5,32.5,29.98,West,270,1.0,1.0,43,0.00,,,0.00,0.0,meteohub,2013-03-07 05:35:00,
2013-03-06 22:40:00,54.5,33.6,29.98,West,270,1.0,2.0,45,0.00,,,0.00,0.0,meteohub,2013-03-07 05:40:00,
2013-03-06 22:45:00,54.0,32.5,29.98,West,270,1.0,2.0,44,0.00,,,0.00,0.0,meteohub,2013-03-07 05:45:00,
2013-03-06 22:50:00,53.6,32.2,29.98,West,270,1.0,2.0,44,0.00,,,0.00,0.0,meteohub,2013-03-07 05:50:00,
2013-03-06 22:55:00,53.4,33.1,29.98,West,270,1.0,2.0,46,0.00,,,0.00,0.0,meteohub,2013-03-07 05:55:00,
2013-03-06 23:00:00,53.4,32.0,29.98,West,270,1.0,2.0,44,0.00,,,0.00,0.0,meteohub,2013-03-07 06:00:00,
2013-03-06 23:05:00,53.8,32.4,29.98,West,270,1.0,3.0,44,0.00,,,0.00,0.0,meteohub,2013-03-07 06:05:00,
2013-03-06 23:10:00,53.8,31.8,29.98,West,270,2.0,3.0,43,0.00,,,0.00,0.0,meteohub,2013-03-07 06:10:00,
2013-03-06 23:15:00,54.0,31.5,29.98,West,270,1.0,2.0,42,0.00,,,0.00,0.0,meteohub,2013-03-07 06:15:00,
2013-03-06 23:20:00,54.9,31.6,29.97,West,270,1.0,2.0,41,0.00,,,0.00,0.0,meteohub,2013-03-07 06:20:00,
2013-03-06 23:25:00,55.2,32.5,29.98,West,270,1.0,2.0,42,0.00,,,0.00,0.0,meteohub,2013-03-07 06:25:00,
2013-03-06 23:30:00,54.9,33.4,29.98,West,270,1.0,2.0,44,0.00,,,0.00,0.0,meteohub,2013-03-07 06:30:00,
2013-03-06 23:35:00,54.5,32.5,29.98,SW,228,2.0,3.0,43,0.00,,,0.00,0.0,meteohub,2013-03-07 06:35:00,
2013-03-06 23:40:00,54.3,32.4,29.98,SW,227,1.0,3.0,43,0.00,,,0.00,0.0,meteohub,2013-03-07 06:40:00,
2013-03-06 23:45:00,54.1,32.7,29.98,SW,227,0.0,3.0,44,0.00,,,0.00,0.0,meteohub,2013-03-07 06:45:00,
2013-03-06 23:50:00,53.6,32.7,29.98,SW,227,0.0,2.0,45,0.00,,,0.00,0.0,meteohub,2013-03-07 06:50:00,
2013-03-06 23:55:00,53.1,32.9,29.98,SW,227,0.0,1.0,46,0.00,,,0.00,0.0,meteohub,2013-03-07 06:55:00,